createdAt,value
2018-04-27T00:00:12.771Z,50.01
2018-04-27T00:01:13.337Z,49.44
2018-04-27T00:02:13.905Z,49.15
2018-04-27T00:03:14.473Z,49.25
2018-04-27T00:04:15.042Z,49.44
2018-04-27T00:05:15.610Z,50.10
2018-04-27T00:06:16.178Z,50.48
2018-04-27T00:07:16.744Z,51.15
2018-04-27T00:08:17.312Z,52.01
2018-04-27T00:09:17.879Z,51.82
2018-04-27T00:10:18.445Z,52.10
2018-04-27T00:11:19.014Z,53.05
2018-04-27T00:12:19.583Z,53.24
2018-04-27T00:13:20.149Z,52.39
2018-04-27T00:14:20.718Z,51.82
2018-04-27T00:15:21.283Z,51.62
2018-04-27T00:16:21.852Z,50.96
2018-04-27T00:17:22.432Z,49.89
2018-04-27T00:18:23.000Z,50.29
2018-04-27T00:19:23.569Z,49.73
2018-04-27T00:20:24.137Z,50.68
2018-04-27T00:21:24.709Z,51.06
2018-04-27T00:22:25.273Z,50.68
2018-04-27T00:23:25.843Z,50.87
2018-04-27T00:24:26.408Z,50.68
2018-04-27T00:25:26.978Z,50.20
2018-04-27T00:26:27.546Z,50.20
2018-04-27T00:27:28.114Z,49.35
2018-04-27T00:28:28.692Z,48.58
2018-04-27T00:29:29.260Z,50.10
2018-04-27T00:30:29.833Z,50.20
2018-04-27T00:31:30.398Z,50.01
2018-04-27T00:32:30.968Z,50.39
2018-04-27T00:33:31.535Z,50.29
2018-04-27T00:34:32.104Z,50.20
2018-04-27T00:35:32.672Z,50.68
2018-04-27T00:36:33.241Z,49.91
2018-04-27T00:37:33.808Z,50.29
2018-04-27T00:38:34.375Z,50.10
2018-04-27T00:39:34.944Z,50.68
2018-04-27T00:40:35.512Z,50.01
2018-04-27T00:41:36.080Z,48.75
2018-04-27T00:42:36.647Z,48.01
2018-04-27T00:43:37.214Z,48.75
2018-04-27T00:44:37.782Z,49.06
2018-04-27T00:45:38.348Z,48.58
2018-04-27T00:46:38.916Z,49.22
2018-04-27T00:47:39.483Z,48.85
2018-04-27T00:48:40.053Z,48.66
2018-04-27T00:49:40.619Z,48.68
2018-04-27T00:50:41.191Z,48.85
2018-04-27T00:51:41.754Z,47.92
2018-04-27T00:52:42.322Z,48.01
2018-04-27T00:53:42.889Z,48.21
2018-04-27T00:54:43.455Z,47.52
2018-04-27T00:55:44.023Z,46.85
2018-04-27T00:56:44.590Z,46.66
2018-04-27T00:57:45.158Z,46.28
2018-04-27T00:58:45.725Z,46.66
2018-04-27T00:59:46.302Z,46.30
2018-04-27T01:00:46.871Z,46.00
2018-04-27T01:01:47.439Z,45.90
2018-04-27T01:02:48.021Z,45.71
2018-04-27T01:03:48.585Z,45.23
2018-04-27T01:04:49.152Z,45.52
2018-04-27T01:05:49.720Z,45.42
2018-04-27T01:06:50.288Z,45.42
2018-04-27T01:07:50.854Z,45.16
2018-04-27T01:08:51.432Z,45.64
2018-04-27T01:09:52.001Z,46.00
2018-04-27T01:10:52.570Z,44.68
2018-04-27T01:11:53.138Z,44.02
2018-04-27T01:12:53.708Z,43.93
2018-04-27T01:13:54.276Z,43.93
2018-04-27T01:14:54.845Z,44.21
2018-04-27T01:15:55.416Z,43.64
2018-04-27T01:16:55.981Z,43.71
2018-04-27T01:17:56.548Z,42.97
2018-04-27T01:18:57.117Z,41.93
2018-04-27T01:19:57.684Z,41.64
2018-04-27T01:20:58.250Z,41.93
2018-04-27T01:21:58.817Z,41.91
2018-04-27T01:22:59.385Z,41.83
2018-04-27T01:23:59.965Z,41.17
2018-04-27T01:25:00.534Z,41.26
2018-04-27T01:26:01.104Z,40.95
2018-04-27T01:27:01.670Z,40.50
2018-04-27T01:28:02.239Z,40.41
2018-04-27T01:29:02.806Z,39.72
2018-04-27T01:30:03.374Z,39.93
2018-04-27T01:31:03.947Z,39.36
2018-04-27T01:32:04.509Z,38.70
2018-04-27T01:33:05.076Z,39.26
2018-04-27T01:34:05.646Z,38.51
2018-04-27T01:35:06.225Z,38.29
2018-04-27T01:36:06.792Z,38.03
2018-04-27T01:37:07.362Z,37.35
2018-04-27T01:38:07.929Z,36.49
2018-04-27T01:39:08.506Z,36.68
2018-04-27T01:40:09.074Z,37.63
2018-04-27T01:41:09.641Z,37.82
2018-04-27T01:42:10.223Z,37.73
2018-04-27T01:43:10.790Z,37.82
2018-04-27T01:44:11.359Z,37.92
2018-04-27T01:45:11.927Z,37.54
2018-04-27T01:46:12.495Z,37.35
2018-04-27T01:47:13.066Z,39.43
2018-04-27T01:48:13.642Z,40.39
2018-04-27T01:49:14.212Z,38.58
2018-04-27T01:50:14.779Z,39.25
2018-04-27T01:51:15.350Z,35.71
2018-04-27T01:52:15.917Z,35.52
2018-04-27T01:53:16.486Z,33.62
2018-04-27T01:54:17.053Z,30.30
2018-04-27T01:55:17.620Z,29.82
2018-04-27T01:56:18.188Z,26.50
2018-04-27T01:57:18.760Z,26.39
2018-04-27T01:58:19.323Z,28.02
2018-04-27T01:59:19.891Z,28.68
2018-04-27T02:00:20.459Z,29.63
2018-04-27T02:01:21.027Z,31.53
2018-04-27T02:02:21.594Z,34.09
2018-04-27T02:03:22.161Z,31.05
2018-04-27T02:04:22.727Z,31.15
2018-04-27T02:05:23.297Z,29.24
2018-04-27T02:06:23.882Z,30.28
2018-04-27T02:07:24.439Z,29.44
2018-04-27T02:08:25.009Z,28.68
2018-04-27T02:09:25.577Z,28.21
2018-04-27T02:10:26.146Z,29.35
2018-04-27T02:11:26.713Z,31.15
2018-04-27T02:12:27.282Z,30.76
2018-04-27T02:13:27.848Z,28.10
2018-04-27T02:14:28.416Z,26.01
2018-04-27T02:15:28.982Z,25.25
2018-04-27T02:16:29.551Z,25.17
2018-04-27T02:17:30.122Z,25.63
2018-04-27T02:18:30.686Z,24.58
2018-04-27T02:19:31.252Z,24.87
2018-04-27T02:20:31.820Z,25.82
2018-04-27T02:21:32.387Z,25.15
2018-04-27T02:22:32.971Z,27.91
2018-04-27T02:23:33.535Z,28.57
2018-04-27T02:24:34.102Z,28.29
2018-04-27T02:25:34.680Z,28.57
2018-04-27T02:26:35.245Z,28.96
2018-04-27T02:27:35.814Z,29.43
2018-04-27T02:28:36.380Z,27.83
2018-04-27T02:29:36.960Z,27.15
2018-04-27T02:30:37.528Z,26.01
2018-04-27T02:31:38.095Z,25.82
2018-04-27T02:32:38.674Z,24.96
2018-04-27T02:33:39.242Z,25.26
2018-04-27T02:34:39.811Z,26.88
2018-04-27T02:35:40.379Z,28.86
2018-04-27T02:36:40.947Z,28.10
2018-04-27T02:37:41.514Z,26.67
2018-04-27T02:38:42.082Z,22.69
2018-04-27T02:39:42.650Z,24.49
2018-04-27T02:40:43.223Z,24.68
2018-04-27T02:41:43.785Z,23.25
2018-04-27T02:42:44.351Z,21.83
2018-04-27T02:43:44.919Z,21.83
2018-04-27T02:44:45.484Z,22.40
2018-04-27T02:45:46.066Z,25.25
2018-04-27T02:46:46.642Z,24.58
2018-04-27T02:47:47.222Z,23.35
2018-04-27T02:48:47.791Z,23.07
2018-04-27T02:49:48.360Z,20.69
2018-04-27T02:50:48.928Z,20.03
2018-04-27T02:51:49.496Z,19.46
2018-04-27T02:52:50.062Z,16.80
2018-04-27T02:53:50.630Z,17.37
2018-04-27T02:54:51.196Z,17.37
2018-04-27T02:55:51.764Z,18.89
2018-04-27T02:56:52.342Z,16.42
2018-04-27T02:57:52.918Z,16.71
2018-04-27T02:58:53.476Z,16.14
2018-04-27T02:59:54.044Z,17.37
2018-04-27T03:00:54.613Z,14.81
2018-04-27T03:01:55.181Z,14.62
2018-04-27T03:02:55.754Z,15.19
2018-04-27T03:03:56.316Z,17.27
2018-04-27T03:04:56.884Z,17.27
2018-04-27T03:05:57.453Z,19.84
2018-04-27T03:06:58.020Z,17.66
2018-04-27T03:07:58.585Z,15.66
2018-04-27T03:08:59.152Z,13.95
2018-04-27T03:09:59.718Z,14.62
2018-04-27T03:11:00.287Z,16.05
2018-04-27T03:12:00.854Z,18.33
2018-04-27T03:13:01.419Z,19.28
2018-04-27T03:14:01.985Z,19.85
2018-04-27T03:15:02.552Z,21.37
2018-04-27T03:16:03.119Z,21.37
2018-04-27T03:17:03.686Z,22.80
2018-04-27T03:18:04.252Z,21.66
2018-04-27T03:19:04.819Z,21.08
2018-04-27T03:20:05.397Z,22.32
2018-04-27T03:21:05.966Z,22.89
2018-04-27T03:22:06.543Z,23.18
2018-04-27T03:23:07.112Z,24.51
2018-04-27T03:24:07.678Z,24.41
2018-04-27T03:25:08.249Z,24.32
2018-04-27T03:26:08.810Z,24.51
2018-04-27T03:27:09.378Z,24.60
2018-04-27T03:28:09.944Z,24.60
2018-04-27T03:29:10.509Z,25.93
2018-04-27T03:30:11.075Z,25.84
2018-04-27T03:31:11.641Z,25.84
2018-04-27T03:32:12.208Z,24.60
2018-04-27T03:33:12.775Z,24.51
2018-04-27T03:34:13.406Z,24.69
2018-04-27T03:35:13.909Z,24.03
2018-04-27T03:36:14.475Z,26.03
2018-04-27T03:37:15.042Z,24.79
2018-04-27T03:38:15.609Z,24.03
2018-04-27T03:39:16.176Z,23.93
2018-04-27T03:40:16.742Z,25.07
2018-04-27T03:41:17.308Z,24.22
2018-04-27T03:42:17.882Z,23.93
2018-04-27T03:43:18.442Z,24.69
2018-04-27T03:44:19.009Z,24.12
2018-04-27T03:45:19.667Z,23.84
2018-04-27T03:46:20.145Z,23.55
2018-04-27T03:47:20.710Z,23.65
2018-04-27T03:48:21.276Z,22.80
2018-04-27T03:49:21.844Z,22.13
2018-04-27T03:50:22.414Z,22.60
2018-04-27T03:51:22.990Z,23.18
2018-04-27T03:52:23.567Z,24.41
2018-04-27T03:53:24.134Z,22.51
2018-04-27T03:54:24.701Z,23.27
2018-04-27T03:55:25.268Z,25.17
2018-04-27T03:56:25.834Z,24.98
2018-04-27T03:57:26.401Z,26.03
2018-04-27T03:58:27.009Z,26.69
2018-04-27T03:59:27.536Z,27.16
2018-04-27T04:00:28.105Z,27.45
2018-04-27T04:01:28.673Z,28.11
2018-04-27T04:02:29.242Z,26.88
2018-04-27T04:03:29.810Z,26.31
2018-04-27T04:04:30.388Z,25.07
2018-04-27T04:05:30.956Z,21.83
2018-04-27T04:06:31.523Z,20.89
2018-04-27T04:07:32.101Z,17.94
2018-04-27T04:08:32.669Z,16.80
2018-04-27T04:09:33.237Z,14.90
2018-04-27T04:10:33.805Z,13.57
2018-04-27T04:11:34.373Z,12.72
2018-04-27T04:12:34.941Z,12.72
2018-04-27T04:13:35.509Z,13.67
2018-04-27T04:14:36.077Z,13.48
2018-04-27T04:15:36.645Z,14.14
2018-04-27T04:16:37.213Z,13.67
2018-04-27T04:17:37.783Z,12.81
2018-04-27T04:18:38.355Z,14.33
2018-04-27T04:19:38.931Z,10.91
2018-04-27T04:20:39.499Z,11.10
2018-04-27T04:21:40.067Z,13.00
2018-04-27T04:22:40.636Z,14.62
2018-04-27T04:23:41.205Z,14.71
2018-04-27T04:24:41.774Z,15.00
2018-04-27T04:25:42.343Z,15.28
2018-04-27T04:26:42.911Z,16.23
2018-04-27T04:27:43.488Z,15.95
2018-04-27T04:28:44.058Z,15.66
2018-04-27T04:29:44.633Z,15.00
2018-04-27T04:30:45.207Z,15.00
2018-04-27T04:31:45.777Z,15.37
2018-04-27T04:32:46.357Z,14.90
2018-04-27T04:33:46.924Z,14.14
2018-04-27T04:34:47.492Z,12.91
2018-04-27T04:35:48.061Z,12.15
2018-04-27T04:36:48.629Z,10.16
2018-04-27T04:37:49.197Z,10.34
2018-04-27T04:38:49.766Z,11.01
2018-04-27T04:39:50.334Z,14.43
2018-04-27T04:40:50.904Z,15.19
2018-04-27T04:41:51.472Z,17.85
2018-04-27T04:42:52.042Z,15.95
2018-04-27T04:43:52.610Z,16.99
2018-04-27T04:44:53.177Z,16.89
2018-04-27T04:45:53.745Z,17.75
2018-04-27T04:46:54.314Z,16.80
2018-04-27T04:47:54.884Z,16.80
2018-04-27T04:48:55.465Z,16.23
2018-04-27T04:49:56.034Z,16.89
2018-04-27T04:50:56.606Z,16.14
2018-04-27T04:51:57.175Z,16.80
2018-04-27T04:52:57.756Z,18.41
2018-04-27T04:53:58.327Z,18.51
2018-04-27T04:54:58.897Z,18.60
2018-04-27T04:55:59.476Z,18.32
2018-04-27T04:57:00.047Z,18.41
2018-04-27T04:58:00.618Z,19.84
2018-04-27T04:59:01.188Z,19.65
2018-04-27T05:00:01.757Z,20.22
2018-04-27T05:01:02.325Z,19.84
2018-04-27T05:02:02.894Z,18.41
2018-04-27T05:03:03.522Z,18.32
2018-04-27T05:04:04.040Z,16.99
2018-04-27T05:05:04.609Z,17.47
2018-04-27T05:06:05.177Z,17.56
2018-04-27T05:07:05.746Z,16.99
2018-04-27T05:08:06.318Z,16.71
2018-04-27T05:09:06.897Z,16.52
2018-04-27T05:10:07.470Z,15.00
2018-04-27T05:11:08.036Z,15.00
2018-04-27T05:12:08.606Z,15.00
2018-04-27T05:13:09.177Z,16.23
2018-04-27T05:14:09.748Z,18.04
2018-04-27T05:15:10.319Z,19.27
2018-04-27T05:16:10.901Z,20.04
2018-04-27T05:17:11.473Z,20.22
2018-04-27T05:18:12.052Z,20.03
2018-04-27T05:19:12.624Z,18.89
2018-04-27T05:20:13.195Z,19.74
2018-04-27T05:21:13.778Z,19.74
2018-04-27T05:22:14.348Z,19.65
2018-04-27T05:23:14.918Z,18.80
2018-04-27T05:24:15.514Z,18.71
2018-04-27T05:25:16.060Z,17.95
2018-04-27T05:26:16.641Z,16.72
2018-04-27T05:27:17.211Z,16.81
2018-04-27T05:28:17.788Z,16.43
2018-04-27T05:29:18.353Z,17.00
2018-04-27T05:30:18.923Z,16.72
2018-04-27T05:31:19.493Z,17.38
2018-04-27T05:32:20.063Z,17.85
2018-04-27T05:33:20.644Z,19.37
2018-04-27T05:34:21.215Z,18.99
2018-04-27T05:35:21.785Z,20.23
2018-04-27T05:36:22.356Z,20.99
2018-04-27T05:37:22.927Z,21.18
2018-04-27T05:38:23.496Z,21.84
2018-04-27T05:39:24.068Z,21.94
2018-04-27T05:40:24.637Z,22.03
2018-04-27T05:41:25.209Z,23.94
2018-04-27T05:42:25.781Z,23.74
2018-04-27T05:43:26.351Z,23.74
2018-04-27T05:44:26.923Z,23.75
2018-04-27T05:45:27.491Z,24.42
2018-04-27T05:46:28.063Z,24.33
2018-04-27T05:47:28.634Z,23.94
2018-04-27T05:48:29.205Z,25.27
2018-04-27T05:49:29.776Z,26.32
2018-04-27T05:50:30.346Z,25.56
2018-04-27T05:51:30.921Z,27.37
2018-04-27T05:52:31.489Z,26.98
2018-04-27T05:53:32.060Z,29.17
2018-04-27T05:54:32.631Z,28.22
2018-04-27T05:55:33.245Z,27.75
2018-04-27T05:56:33.772Z,29.46
2018-04-27T05:57:34.342Z,28.03
2018-04-27T05:58:34.924Z,28.12
2018-04-27T05:59:35.494Z,30.03
2018-04-27T06:00:36.066Z,29.84
2018-04-27T06:01:36.638Z,29.66
2018-04-27T06:02:37.211Z,30.90
2018-04-27T06:03:37.782Z,30.04
2018-04-27T06:04:38.404Z,33.47
2018-04-27T06:05:38.925Z,33.09
2018-04-27T06:06:39.497Z,33.94
2018-04-27T06:07:40.079Z,32.99
2018-04-27T06:08:40.653Z,36.70
2018-04-27T06:09:41.223Z,35.37
2018-04-27T06:10:41.795Z,34.61
2018-04-27T06:11:42.366Z,35.65
2018-04-27T06:12:42.937Z,37.08
2018-04-27T06:13:43.510Z,39.07
2018-04-27T06:14:44.080Z,43.54
2018-04-27T06:15:44.656Z,49.91
2018-04-27T06:16:45.235Z,47.75
2018-04-27T06:17:45.817Z,47.37
2018-04-27T06:18:46.389Z,46.80
2018-04-27T06:19:46.968Z,44.52
2018-04-27T06:20:47.547Z,45.00
2018-04-27T06:21:48.118Z,61.93
2018-04-27T06:22:48.688Z,66.20
2018-04-27T06:23:49.259Z,58.40
2018-04-27T06:24:49.831Z,54.60
2018-04-27T06:25:50.495Z,52.15
2018-04-27T06:26:50.975Z,52.63
2018-04-27T06:27:51.546Z,59.10
2018-04-27T06:28:52.118Z,55.74
2018-04-27T06:29:52.690Z,59.64
2018-04-27T06:30:53.263Z,66.02
2018-04-27T06:31:53.918Z,62.88
2018-04-27T06:32:54.405Z,73.34
2018-04-27T06:33:54.976Z,73.28
2018-04-27T06:34:55.550Z,73.57
2018-04-27T06:35:56.122Z,79.85
2018-04-27T06:36:56.692Z,83.85
2018-04-27T06:37:57.275Z,82.23
2018-04-27T06:38:57.849Z,83.70
2018-04-27T06:39:58.422Z,84.17
2018-04-27T06:40:58.993Z,86.55
2018-04-27T06:41:59.565Z,87.51
2018-04-27T06:43:00.139Z,90.65
2018-04-27T06:44:00.713Z,86.75
2018-04-27T06:45:01.285Z,87.60
2018-04-27T06:46:01.872Z,90.46
2018-04-27T06:47:02.442Z,88.18
2018-04-27T06:48:03.014Z,85.03
2018-04-27T06:49:03.588Z,87.13
2018-04-27T06:50:04.164Z,87.89
2018-04-27T06:51:04.738Z,88.18
2018-04-27T06:52:05.322Z,87.93
2018-04-27T06:53:05.895Z,93.13
2018-04-27T06:54:06.470Z,89.61
2018-04-27T06:55:07.052Z,90.03
2018-04-27T06:56:07.630Z,87.27
2018-04-27T06:57:08.203Z,88.98
2018-04-27T06:58:08.775Z,87.36
2018-04-27T06:59:09.375Z,89.94
2018-04-27T07:00:09.921Z,88.98
2018-04-27T07:01:10.495Z,90.79
2018-04-27T07:02:11.070Z,88.51
2018-04-27T07:03:11.643Z,88.17
2018-04-27T07:04:12.215Z,87.88
2018-04-27T07:05:12.880Z,89.12
2018-04-27T07:06:13.372Z,90.84
2018-04-27T07:07:13.947Z,89.79
2018-04-27T07:08:14.522Z,89.83
2018-04-27T07:09:15.105Z,88.50
2018-04-27T07:10:15.678Z,90.79
2018-04-27T07:11:16.253Z,92.36
2018-04-27T07:12:16.828Z,89.98
2018-04-27T07:13:17.413Z,90.36
2018-04-27T07:14:17.986Z,92.27
2018-04-27T07:15:18.560Z,92.12
2018-04-27T07:16:19.133Z,92.08
2018-04-27T07:17:19.709Z,91.60
2018-04-27T07:18:20.282Z,92.36
2018-04-27T07:19:20.855Z,92.74
2018-04-27T07:20:21.431Z,92.60
2018-04-27T07:21:22.010Z,95.46
2018-04-27T07:22:22.592Z,92.50
2018-04-27T07:23:23.168Z,94.70
2018-04-27T07:24:23.754Z,95.27
2018-04-27T07:25:24.334Z,93.32
2018-04-27T07:26:24.902Z,95.41
2018-04-27T07:27:25.487Z,93.32
2018-04-27T07:28:26.060Z,92.98
2018-04-27T07:29:26.634Z,92.88
2018-04-27T07:30:27.207Z,95.27
2018-04-27T07:31:27.782Z,94.51
2018-04-27T07:32:28.368Z,95.56
2018-04-27T07:33:28.943Z,98.13
2018-04-27T07:34:29.517Z,96.98
2018-04-27T07:35:30.103Z,95.27
2018-04-27T07:36:30.678Z,93.65
2018-04-27T07:37:31.252Z,95.17
2018-04-27T07:38:31.825Z,95.65
2018-04-27T07:39:32.431Z,92.98
2018-04-27T07:40:33.059Z,97.80
2018-04-27T07:41:33.559Z,94.84
2018-04-27T07:42:34.136Z,99.04
2018-04-27T07:43:34.709Z,94.27
2018-04-27T07:44:35.283Z,99.99
2018-04-27T07:45:35.859Z,99.99
2018-04-27T07:46:36.445Z,96.46
2018-04-27T07:47:37.020Z,97.99
2018-04-27T07:48:37.596Z,99.99
2018-04-27T07:49:38.170Z,98.37
2018-04-27T07:50:38.744Z,96.08
2018-04-27T07:51:39.325Z,97.51
2018-04-27T07:52:39.907Z,93.07
2018-04-27T07:53:40.482Z,97.66
2018-04-27T07:54:41.058Z,99.99
2018-04-27T07:55:41.633Z,99.99
2018-04-27T07:56:42.207Z,99.85
2018-04-27T07:57:42.793Z,99.99
2018-04-27T07:58:43.368Z,99.99
2018-04-27T07:59:43.943Z,99.99
2018-04-27T08:00:44.527Z,99.99
2018-04-27T08:01:45.102Z,97.56
2018-04-27T08:02:45.687Z,99.66
2018-04-27T08:03:46.262Z,99.95
2018-04-27T08:04:46.838Z,99.76
2018-04-27T08:05:47.413Z,99.99
2018-04-27T08:06:47.994Z,99.99
2018-04-27T08:07:48.574Z,99.99
2018-04-27T08:08:49.208Z,99.99
2018-04-27T08:09:49.736Z,99.99
2018-04-27T08:10:50.311Z,99.99
2018-04-27T08:11:50.887Z,99.99
2018-04-27T08:12:51.461Z,14.60
2018-04-27T08:13:52.039Z,14.60
2018-04-27T08:14:52.614Z,14.60
2018-04-27T08:15:53.201Z,14.60
2018-04-27T08:16:53.776Z,14.60
2018-04-27T08:17:54.351Z,14.60
2018-04-27T08:18:54.939Z,14.60
2018-04-27T08:19:55.523Z,14.60
2018-04-27T08:20:56.100Z,14.60
2018-04-27T08:21:56.676Z,14.60
2018-04-27T08:22:57.265Z,14.60
2018-04-27T08:23:57.835Z,14.60
2018-04-27T08:24:58.410Z,14.60
2018-04-27T08:25:58.986Z,14.60
2018-04-27T08:26:59.562Z,14.60
2018-04-27T08:28:00.137Z,14.60
2018-04-27T08:29:00.726Z,14.60
2018-04-27T08:30:01.314Z,14.60
2018-04-27T08:31:01.895Z,14.60
2018-04-27T08:32:02.472Z,14.60
2018-04-27T08:33:03.051Z,14.60
2018-04-27T08:34:03.639Z,14.60
2018-04-27T08:35:04.221Z,14.60
2018-04-27T08:36:04.801Z,14.60
2018-04-27T08:37:05.372Z,14.60
2018-04-27T08:38:05.949Z,14.60
2018-04-27T08:39:06.542Z,14.60
2018-04-27T08:40:07.112Z,14.60
2018-04-27T08:41:07.685Z,14.60
2018-04-27T08:42:08.263Z,14.60
2018-04-27T08:43:08.842Z,14.60
2018-04-27T08:44:09.416Z,14.60
2018-04-27T08:45:09.990Z,14.60
2018-04-27T08:46:10.567Z,14.60
2018-04-27T08:47:11.145Z,14.60
2018-04-27T08:48:11.720Z,14.60
2018-04-27T08:49:12.298Z,14.60
2018-04-27T08:50:12.875Z,14.60
2018-04-27T08:51:13.450Z,14.60
2018-04-27T08:52:14.037Z,14.60
2018-04-27T08:53:14.612Z,14.60
2018-04-27T08:54:15.188Z,14.60
2018-04-27T08:55:15.764Z,14.60
2018-04-27T08:56:16.342Z,14.60
2018-04-27T08:57:16.917Z,14.60
2018-04-27T08:58:17.493Z,14.60
2018-04-27T08:59:18.069Z,14.60
2018-04-27T09:00:18.646Z,14.60
2018-04-27T09:01:19.222Z,14.60
2018-04-27T09:02:19.800Z,14.60
2018-04-27T09:03:20.375Z,14.60
2018-04-27T09:04:20.952Z,14.60
2018-04-27T09:05:21.539Z,14.60
2018-04-27T09:06:22.148Z,14.60
2018-04-27T09:07:22.714Z,14.60
2018-04-27T09:08:23.289Z,14.60
2018-04-27T09:09:23.869Z,14.60
2018-04-27T09:10:24.444Z,14.60
2018-04-27T09:11:25.021Z,14.60
2018-04-27T09:12:25.593Z,14.60
2018-04-27T09:13:26.170Z,14.60
2018-04-27T09:14:26.746Z,14.60
2018-04-27T09:15:27.322Z,14.60
2018-04-27T09:16:27.903Z,14.60
2018-04-27T09:17:28.474Z,14.60
2018-04-27T09:18:29.051Z,14.60
2018-04-27T09:19:29.628Z,14.60
2018-04-27T09:20:30.204Z,14.60
2018-04-27T09:21:30.787Z,14.60
2018-04-27T09:22:31.360Z,14.60
2018-04-27T09:23:31.936Z,14.60
2018-04-27T09:24:32.513Z,14.60
2018-04-27T09:25:33.089Z,14.60
2018-04-27T09:26:33.665Z,14.60
2018-04-27T09:27:34.243Z,14.60
2018-04-27T09:28:34.818Z,14.60
2018-04-27T09:29:35.394Z,14.60
2018-04-27T09:30:35.982Z,14.60
2018-04-27T09:31:36.557Z,14.60
2018-04-27T09:32:37.133Z,14.60
2018-04-27T09:33:37.721Z,14.60
2018-04-27T09:34:38.297Z,14.60
2018-04-27T09:35:38.874Z,14.60
2018-04-27T09:36:39.452Z,14.60
2018-04-27T09:37:40.028Z,14.60
2018-04-27T09:38:40.605Z,14.60
2018-04-27T09:39:41.183Z,14.60
2018-04-27T09:40:41.760Z,14.60
2018-04-27T09:41:42.337Z,14.60
2018-04-27T09:42:42.914Z,14.60
2018-04-27T09:43:43.491Z,14.60
2018-04-27T09:44:44.069Z,14.60
2018-04-27T09:45:44.645Z,14.60
2018-04-27T09:46:45.221Z,14.60
2018-04-27T09:47:45.808Z,14.60
2018-04-27T09:48:46.385Z,14.60
2018-04-27T09:49:46.963Z,14.60
2018-04-27T09:50:47.587Z,14.60
2018-04-27T09:51:48.126Z,14.60
2018-04-27T09:52:48.715Z,14.60
2018-04-27T09:53:49.289Z,14.60
2018-04-27T09:54:49.868Z,14.60
2018-04-27T09:55:50.445Z,14.60
2018-04-27T09:56:51.022Z,14.60
2018-04-27T09:57:51.599Z,14.60
2018-04-27T09:58:52.177Z,14.60
2018-04-27T09:59:52.755Z,14.60
2018-04-27T10:00:53.331Z,14.60
2018-04-27T10:01:53.910Z,14.60
2018-04-27T10:02:54.486Z,14.60
2018-04-27T10:03:55.073Z,14.60
2018-04-27T10:04:55.651Z,14.60
2018-04-27T10:05:56.229Z,14.60
2018-04-27T10:06:56.805Z,14.60
2018-04-27T10:07:57.384Z,14.60
2018-04-27T10:08:57.964Z,14.60
2018-04-27T10:09:58.540Z,14.60
2018-04-27T10:10:59.118Z,14.60
2018-04-27T10:11:59.695Z,14.60
2018-04-27T10:13:00.273Z,14.60
2018-04-27T10:14:00.852Z,14.60
2018-04-27T10:15:01.513Z,14.60
2018-04-27T10:16:02.005Z,14.60
2018-04-27T10:17:02.582Z,14.60
2018-04-27T10:18:03.170Z,14.60
2018-04-27T10:19:03.749Z,14.60
2018-04-27T10:20:04.329Z,14.60
2018-04-27T10:21:04.917Z,14.60
2018-04-27T10:22:05.496Z,14.60
2018-04-27T10:23:06.074Z,14.60
2018-04-27T10:24:06.653Z,14.60
2018-04-27T10:25:07.232Z,14.60
2018-04-27T10:26:07.820Z,14.60
2018-04-27T10:27:08.400Z,14.60
2018-04-27T10:28:08.987Z,14.60
2018-04-27T10:29:09.575Z,14.60
2018-04-27T10:30:10.152Z,14.60
2018-04-27T10:31:10.729Z,14.60
2018-04-27T10:32:11.319Z,14.60
2018-04-27T10:33:11.897Z,14.60
2018-04-27T10:34:12.485Z,14.60
2018-04-27T10:35:13.073Z,14.60
2018-04-27T10:36:13.651Z,14.60
2018-04-27T10:37:14.232Z,14.60
2018-04-27T10:38:14.810Z,14.60
2018-04-27T10:39:15.388Z,14.60
2018-04-27T10:40:15.964Z,14.60
2018-04-27T10:41:16.550Z,14.60
2018-04-27T10:42:17.123Z,14.60
2018-04-27T10:43:17.701Z,14.60
2018-04-27T10:44:18.280Z,14.60
2018-04-27T10:45:18.868Z,14.60
2018-04-27T10:46:19.457Z,14.60
2018-04-27T10:47:20.041Z,14.60
2018-04-27T10:48:20.611Z,14.60
2018-04-27T10:49:21.190Z,14.60
2018-04-27T10:50:21.844Z,14.60
2018-04-27T10:51:22.347Z,14.60
2018-04-27T10:52:22.924Z,14.60
2018-04-27T10:53:23.502Z,14.60
2018-04-27T10:54:24.081Z,14.60
2018-04-27T10:55:24.663Z,14.60
2018-04-27T10:56:25.289Z,14.60
2018-04-27T10:57:25.823Z,14.60
2018-04-27T10:58:26.402Z,14.60
2018-04-27T10:59:26.978Z,14.60
2018-04-27T11:00:27.557Z,14.60
2018-04-27T11:01:28.184Z,14.60
2018-04-27T11:02:28.722Z,14.60
2018-04-27T11:03:29.363Z,14.60
2018-04-27T11:04:29.895Z,14.60
2018-04-27T11:05:30.471Z,14.60
2018-04-27T11:06:31.051Z,14.60
2018-04-27T11:07:31.651Z,14.60
2018-04-27T11:08:32.238Z,14.60
2018-04-27T11:09:32.784Z,14.60
2018-04-27T11:10:33.364Z,14.60
2018-04-27T11:11:33.943Z,14.60
2018-04-27T11:12:34.531Z,14.60
2018-04-27T11:13:35.112Z,14.60
2018-04-27T11:14:35.692Z,14.60
2018-04-27T11:15:36.269Z,14.60
2018-04-27T11:16:36.847Z,14.60
2018-04-27T11:17:37.425Z,14.60
2018-04-27T11:18:38.005Z,14.60
2018-04-27T11:19:38.594Z,14.60
2018-04-27T11:20:39.173Z,14.60
2018-04-27T11:21:39.750Z,14.60
2018-04-27T11:22:40.330Z,14.60
2018-04-27T11:23:40.908Z,14.60
2018-04-27T11:24:41.487Z,14.60
2018-04-27T11:25:42.066Z,14.60
2018-04-27T11:26:42.645Z,14.60
2018-04-27T11:27:43.225Z,14.60
2018-04-27T11:28:43.822Z,14.60
2018-04-27T11:29:44.394Z,14.60
2018-04-27T11:30:44.972Z,14.60
2018-04-27T11:31:45.552Z,14.60
2018-04-27T11:32:46.131Z,14.60
2018-04-27T11:33:46.721Z,14.60
2018-04-27T11:34:47.312Z,14.60
2018-04-27T11:35:47.890Z,14.60
2018-04-27T11:36:48.473Z,14.60
2018-04-27T11:37:49.048Z,14.60
2018-04-27T11:38:49.628Z,14.60
2018-04-27T11:39:50.243Z,14.60
2018-04-27T11:40:50.785Z,14.60
2018-04-27T11:41:51.367Z,14.60
2018-04-27T11:42:51.946Z,14.60
2018-04-27T11:43:52.525Z,14.60
2018-04-27T11:44:53.105Z,14.60
2018-04-27T11:45:53.695Z,14.60
2018-04-27T11:46:54.276Z,14.60
2018-04-27T11:47:54.861Z,14.60
2018-04-27T11:48:55.436Z,14.60
2018-04-27T11:49:56.017Z,14.60
2018-04-27T11:50:56.598Z,14.60
2018-04-27T11:51:57.177Z,14.60
2018-04-27T11:52:57.757Z,14.60
2018-04-27T11:53:58.339Z,14.60
2018-04-27T11:54:58.918Z,14.60
2018-04-27T11:55:59.499Z,14.60
2018-04-27T11:57:00.080Z,14.60
2018-04-27T11:58:00.660Z,14.60
2018-04-27T11:59:01.238Z,14.60
2018-04-27T12:00:01.829Z,14.60
2018-04-27T12:01:02.406Z,14.60
2018-04-27T12:02:02.986Z,14.60
2018-04-27T12:03:03.568Z,14.60
2018-04-27T12:04:04.159Z,14.60
2018-04-27T12:05:04.741Z,14.60
2018-04-27T12:06:05.323Z,14.60
2018-04-27T12:07:05.912Z,14.60
2018-04-27T12:08:06.490Z,14.60
2018-04-27T12:09:07.070Z,14.60
2018-04-27T12:10:07.649Z,14.60
2018-04-27T12:11:08.231Z,14.60
2018-04-27T12:12:08.809Z,14.60
2018-04-27T12:13:09.389Z,14.60
2018-04-27T12:14:09.970Z,14.60
2018-04-27T12:15:10.552Z,14.60
2018-04-27T12:16:11.132Z,14.60
2018-04-27T12:17:11.717Z,14.60
2018-04-27T12:18:12.296Z,14.60
2018-04-27T12:19:12.874Z,14.60
2018-04-27T12:20:13.454Z,14.60
2018-04-27T12:21:14.037Z,14.60
2018-04-27T12:22:14.617Z,14.60
2018-04-27T12:23:15.198Z,14.60
2018-04-27T12:24:15.781Z,14.60
2018-04-27T12:25:16.371Z,14.60
2018-04-27T12:26:16.950Z,14.60
2018-04-27T12:27:17.533Z,14.60
2018-04-27T12:28:18.112Z,14.60
2018-04-27T12:29:18.692Z,14.60
2018-04-27T12:30:19.273Z,14.60
2018-04-27T12:31:19.981Z,14.60
2018-04-27T12:32:20.434Z,14.60
2018-04-27T12:33:21.023Z,14.60
2018-04-27T12:34:21.604Z,14.60
2018-04-27T12:35:22.182Z,14.60
2018-04-27T12:36:22.767Z,14.60
2018-04-27T12:37:23.356Z,14.60
2018-04-27T12:38:23.936Z,14.60
2018-04-27T12:39:24.517Z,14.60
2018-04-27T12:40:25.100Z,14.60
2018-04-27T12:41:25.678Z,14.60
2018-04-27T12:42:26.257Z,14.60
2018-04-27T12:43:26.841Z,14.60
2018-04-27T12:44:27.419Z,14.60
2018-04-27T12:45:28.011Z,14.60
2018-04-27T12:46:28.592Z,14.60
2018-04-27T12:47:29.171Z,14.60
2018-04-27T12:48:29.751Z,14.60
2018-04-27T12:49:30.338Z,14.60
2018-04-27T12:50:30.910Z,14.60
2018-04-27T12:51:31.489Z,14.60
2018-04-27T12:52:32.070Z,14.60
2018-04-27T12:53:32.651Z,14.60
2018-04-27T12:54:33.234Z,14.60
2018-04-27T12:55:33.819Z,14.60
2018-04-27T12:56:34.408Z,14.60
2018-04-27T12:57:34.994Z,14.60
2018-04-27T12:58:35.580Z,14.60
2018-04-27T12:59:36.159Z,14.60